This is the latest recevied weather packets stored in our database for station/object SQ3VAS-10. If no packets are shown the sender has not sent any weather packets the latest 10 day(s).
| Time | Temp. | Humidity | Pressure | Rain* | Wind** | Luminosity | Snow |
|---|---|---|---|---|---|---|---|
| 1778247691 | 21.67° C | 34% | 1020.4 hPa | - | - | - | - |
| 1778247118 | 21.11° C | 35% | 1020.6 hPa | - | - | - | - |
| 1778246544 | 21.11° C | 37% | 1020.6 hPa | - | - | - | - |
| 1778245971 | 20.56° C | 38% | 1020.8 hPa | - | - | - | - |
| 1778245399 | 20.56° C | 38% | 1020.7 hPa | - | - | - | - |
| 1778244826 | 20.56° C | 37% | 1020.9 hPa | - | - | - | - |
| 1778244252 | 20° C | 39% | 1020.9 hPa | - | - | - | - |
| 1778243679 | 20° C | 41% | 1021 hPa | - | - | - | - |
| 1778243106 | 18.89° C | 43% | 1021.1 hPa | - | - | - | - |
| 1778242535 | 18.89° C | 42% | 1021.1 hPa | - | - | - | - |
| 1778241963 | 19.44° C | 43% | 1021.1 hPa | - | - | - | - |
| 1778241391 | 20° C | 42% | 1021 hPa | - | - | - | - |
| 1778240818 | 20° C | 42% | 1020.9 hPa | - | - | - | - |
| 1778240245 | 20° C | 42% | 1021 hPa | - | - | - | - |
| 1778239672 | 20° C | 43% | 1021 hPa | - | - | - | - |
| 1778239099 | 20° C | 45% | 1021 hPa | - | - | - | - |
| 1778238526 | 19.44° C | 46% | 1021.2 hPa | - | - | - | - |
| 1778237952 | 18.89° C | 48% | 1021.2 hPa | - | - | - | - |
| 1778237380 | 17.22° C | 50% | 1021.3 hPa | - | - | - | - |
| 1778236807 | 18.89° C | 49% | 1021.2 hPa | - | - | - | - |
| 1778236232 | 17.78° C | 53% | 1021.2 hPa | - | - | - | - |
| 1778235660 | 16.11° C | 55% | 1021.4 hPa | - | - | - | - |
| 1778235088 | 16.67° C | 54% | 1021.3 hPa | - | - | - | - |
| 1778234515 | 16.67° C | 55% | 1021.3 hPa | - | - | - | - |
| 1778233943 | 17.22° C | 52% | 1021.2 hPa | - | - | - | - |
* Rain since midnight (hover to see other rain measurements)
** Current wind speed in m/s (hover to see current wind gust speed)